Wilma — V2AB2 — position and weather

sailwx.info

Track history (hours):
 
Tides and Currents Weather Stations Pressure Air Temp Water Temp Dewpoint Dewpoint Depression Visibility Wind Speed Wind Dir Waves Ship Positions

Wilma

Last reported at 2016-Jan-26 01:26 UTC. Time now 2016-Feb-11 15:05 UTC.
Position N 37°53' E 015°47'.
Warning: this ship's position is 16 days out of date.

Length 152 m; draft 6.1 m.

Type: Ship. MMSI: 304080754.

Date/timePositionNaut miles runAvg speedWind from/ knotsBaromVisibWave heightAir tempDewpointWater temp
2016-Jan-26 01:26N 37°53' E 015°47'1315.0
2016-Jan-26 00:34N 38°01' E 015°35'1616.1
2016-Jan-25 23:33N 38°17' E 015°40'1915.2
2016-Jan-25 22:18N 38°20' E 015°16'6416.7
2016-Jan-25 18:29N 38°22' E 013°55'1616.7
2016-Jan-25 17:33N 38°24' E 013°35'1716.4
2016-Jan-25 16:32N 38°24' E 013°14'56117.0
2016-Jan-24 07:33N 36°51' E 001°35'1818.4
2016-Jan-24 06:33N 36°48' E 001°12'1817.5
2016-Jan-24 05:31N 36°45' E 000°50'1817.7
2016-Jan-24 04:31N 36°42' E 000°28'1617.3
2016-Jan-24 03:33N 36°39' E 000°08'2217.6
2016-Jan-24 02:20N 36°35' W 000°18'7617.7
2016-Jan-23 22:03N 36°24' W 001°51'16917.8
2016-Jan-23 12:33N 36°00' W 005°19'13215.8
2016-Jan-23 04:14N 36°16' W 008°01'1417.3
2016-Jan-23 03:26N 36°19' W 008°17'1517.1
2016-Jan-23 02:32N 36°23' W 008°36'1716.5
2016-Jan-23 01:29N 36°28' W 008°57'1717.4
2016-Jan-23 00:29N 36°33' W 009°17'1516.1
2016-Jan-22 23:32N 36°44' W 009°30'1717.3
2016-Jan-22 22:32N 37°00' W 009°38'1717.4
2016-Jan-22 21:32N 37°17' W 009°42'1616.1
2016-Jan-22 20:32N 37°33' W 009°45'1918.4
2016-Jan-22 19:29N 37°52' W 009°50'1717.5
2016-Jan-22 18:29N 38°09' W 009°56'1515.6
2016-Jan-22 17:33N 38°23' W 010°00'1717.3
2016-Jan-22 16:33N 38°40' W 010°06'1717.1
2016-Jan-22 15:33N 38°57' W 010°08'1817.6
2016-Jan-22 14:32N 39°15' W 010°09'1918.4
2016-Jan-22 13:29N 39°34' W 010°08'1616.7
2016-Jan-22 12:33N 39°50' W 010°08'1717.3
2016-Jan-22 11:32N 40°07' W 010°08'1717.4
2016-Jan-22 10:33N 40°24' W 010°08'1615.8
2016-Jan-22 09:33N 40°40' W 010°07'1818.1
2016-Jan-22 08:33N 40°58' W 010°07'1817.3
2016-Jan-22 07:29N 41°16' W 010°08'1616.7
2016-Jan-22 06:32N 41°32' W 010°08'1716.9
2016-Jan-22 05:32N 41°49' W 010°09'66915.2
2016-Jan-20 09:27N 50°32' W 000°05'1617.3
2016-Jan-20 08:33N 50°35' E 000°19'1716.6
2016-Jan-20 07:33N 50°41' E 000°44'3316.4
2016-Jan-20 05:33N 51°02' E 001°24'1818.2
2016-Jan-20 04:34N 51°14' E 001°46'1818.1
2016-Jan-20 03:33N 51°29' E 002°01'11416.3
2016-Jan-19 20:32N 52°58' E 003°58'5016.7
2016-Jan-19 17:32N 53°34' E 004°57'1616.2
2016-Jan-19 16:33N 53°39' E 005°22'1615.4
2016-Jan-19 15:32N 53°44' E 005°47'1615.2
2016-Jan-19 14:29N 53°49' E 006°13'1414.8
2016-Jan-19 13:33N 53°53' E 006°35'1615.7
2016-Jan-19 12:33N 53°56' E 007°02'1615.8
2016-Jan-19 11:33N 53°59' E 007°28'1313.5
2016-Jan-19 10:33N 53°53' E 007°47'1414.5
2016-Jan-19 09:34N 53°47' E 008°10'1615.7
2016-Jan-19 08:34N 53°37' E 008°30'1110.7
2016-Jan-19 07:33N 53°26' E 008°30'4 4.3
2016-Jan-19 06:31N 53°21' E 008°30'0 0.0
2016-Jan-19 05:31N 53°21' E 008°30'0 0.0
2016-Jan-19 04:33N 53°21' E 008°30'0 0.0
2016-Jan-19 03:33N 53°21' E 008°30'0 0.0
2016-Jan-19 02:32N 53°21' E 008°30'0 0.0
2016-Jan-19 01:32N 53°21' E 008°30'0 0.0
2016-Jan-19 00:31N 53°21' E 008°30'0 0.0
2016-Jan-18 23:31N 53°21' E 008°30'0 0.0
2016-Jan-18 22:31N 53°21' E 008°30'0 0.0
2016-Jan-18 21:30N 53°21' E 008°30'0 0.0
2016-Jan-18 20:33N 53°21' E 008°30'0 0.0
2016-Jan-18 19:32N 53°21' E 008°30'0 0.0
2016-Jan-18 18:29N 53°21' E 008°30'0 0.0
2016-Jan-18 17:31N 53°21' E 008°30'0 0.0
2016-Jan-18 16:31N 53°21' E 008°30'0 0.0
2016-Jan-18 15:31N 53°21' E 008°30'0 0.0
2016-Jan-18 14:33N 53°21' E 008°30'0 0.0
2016-Jan-18 13:33N 53°21' E 008°30'0 0.0
2016-Jan-18 12:32N 53°21' E 008°30'0 0.0
2016-Jan-18 11:32N 53°21' E 008°30'0 0.0
2016-Jan-18 10:31N 53°21' E 008°30'0 0.0
2016-Jan-18 09:31N 53°21' E 008°30'0 0.0
2016-Jan-18 08:31N 53°21' E 008°30'0 0.0
2016-Jan-18 07:33N 53°21' E 008°30'0 0.0
2016-Jan-18 06:33N 53°21' E 008°30'0 0.0
2016-Jan-18 05:23N 53°21' E 008°30'0 0.0
2016-Jan-18 04:32N 53°21' E 008°30'0 0.0
2016-Jan-18 03:31N 53°21' E 008°30'0 0.0
2016-Jan-18 02:31N 53°21' E 008°30'0 0.0
2016-Jan-18 01:34N 53°21' E 008°30'0 0.0
2016-Jan-18 00:33N 53°21' E 008°30'0 0.0
2016-Jan-17 23:33N 53°21' E 008°30'0 0.0
2016-Jan-17 22:32N 53°21' E 008°30'0 0.0
2016-Jan-17 21:32N 53°21' E 008°30'0 0.0
2016-Jan-17 20:31N 53°21' E 008°30'0 0.0
2016-Jan-17 19:31N 53°21' E 008°30'6 6.2
2016-Jan-17 18:34N 53°27' E 008°29'9 9.3
2016-Jan-17 17:33N 53°37' E 008°30'1515.1
2016-Jan-17 16:33N 53°46' E 008°10'1413.6
2016-Jan-17 15:32N 53°52' E 007°49'1110.8
2016-Jan-17 14:33N 54°01' E 007°39'1313.3
2016-Jan-17 13:33N 54°01' E 008°01'1212.2
2016-Jan-17 12:34N 53°59' E 008°22'1414.3
2016-Jan-17 11:33N 53°53' E 008°43'1515.2
2016-Jan-17 10:33N 53°53' E 009°09'1414.0
2016-Jan-17 09:33N 53°44' E 009°27'1413.5
2016-Jan-17 08:33N 53°34' E 009°43'9 8.7
2016-Jan-17 07:34N 53°32' E 009°57'1 0.9
2016-Jan-17 06:30N 53°32' E 009°58'0 0.0
2016-Jan-17 05:33N 53°32' E 009°58'0 0.0
2016-Jan-17 04:32N 53°32' E 009°58'0 0.0
2016-Jan-17 03:32N 53°32' E 009°58'0 0.0
2016-Jan-17 02:31N 53°32' E 009°58'0 0.0
2016-Jan-17 01:31N 53°32' E 009°58'0 0.0
2016-Jan-17 00:28N 53°32' E 009°58'0 0.0
2016-Jan-16 23:30N 53°32' E 009°58'0 0.0
2016-Jan-16 22:33N 53°32' E 009°58'0 0.0
2016-Jan-16 21:32N 53°32' E 009°58'0 0.0
2016-Jan-16 20:23N 53°32' E 009°58'0 0.0
2016-Jan-16 19:31N 53°32' E 009°58'0 0.0
2016-Jan-16 18:28N 53°32' E 009°58'0 0.0
2016-Jan-16 17:31N 53°32' E 009°58'0 0.0
2016-Jan-16 16:33N 53°32' E 009°58'0 0.0
2016-Jan-16 15:33N 53°32' E 009°58'0 0.0
2016-Jan-16 14:32N 53°32' E 009°58'0 0.0
2016-Jan-16 13:29N 53°32' E 009°58'0 0.0
2016-Jan-16 12:31N 53°32' E 009°58'0 0.0
2016-Jan-16 11:31N 53°32' E 009°58'0 0.0
2016-Jan-16 10:31N 53°32' E 009°58'0 0.0
2016-Jan-16 09:33N 53°32' E 009°58'0 0.0
2016-Jan-16 08:33N 53°32' E 009°58'0 0.0
2016-Jan-16 07:32N 53°32' E 009°58'0 0.0
2016-Jan-16 06:26N 53°32' E 009°58'0 0.0
2016-Jan-16 05:28N 53°32' E 009°58'0 0.0
2016-Jan-16 04:31N 53°32' E 009°58'0 0.0
2016-Jan-16 03:34N 53°32' E 009°58'0 0.0
2016-Jan-16 02:33N 53°32' E 009°58'0 0.0
2016-Jan-16 01:33N 53°32' E 009°58'  
Track history (hours):
 
Tides and Currents Weather Stations Pressure Air Temp Water Temp Dewpoint Dewpoint Depression Visibility Wind Speed Wind Dir Waves Ship Positions

Wilma

Last reported at 2016-Jan-26 01:26 UTC. Time now 2016-Feb-11 15:05 UTC.
Position N 37°53' E 015°47'.
Warning: this ship's position is 16 days out of date.

Length 152 m; draft 6.1 m.

Type: Ship. MMSI: 304080754.

Date/timePositionNaut miles runAvg speedWind from/ knotsBaromVisibWave heightAir tempDewpointWater temp
2016-Jan-26 01:26N 37°53' E 015°47'1315.0
2016-Jan-26 00:34N 38°01' E 015°35'1616.1
2016-Jan-25 23:33N 38°17' E 015°40'1915.2
2016-Jan-25 22:18N 38°20' E 015°16'6416.7
2016-Jan-25 18:29N 38°22' E 013°55'1616.7
2016-Jan-25 17:33N 38°24' E 013°35'1716.4
2016-Jan-25 16:32N 38°24' E 013°14'56117.0
2016-Jan-24 07:33N 36°51' E 001°35'1818.4
2016-Jan-24 06:33N 36°48' E 001°12'1817.5
2016-Jan-24 05:31N 36°45' E 000°50'1817.7
2016-Jan-24 04:31N 36°42' E 000°28'1617.3
2016-Jan-24 03:33N 36°39' E 000°08'2217.6
2016-Jan-24 02:20N 36°35' W 000°18'7617.7
2016-Jan-23 22:03N 36°24' W 001°51'16917.8
2016-Jan-23 12:33N 36°00' W 005°19'13215.8
2016-Jan-23 04:14N 36°16' W 008°01'1417.3
2016-Jan-23 03:26N 36°19' W 008°17'1517.1
2016-Jan-23 02:32N 36°23' W 008°36'1716.5
2016-Jan-23 01:29N 36°28' W 008°57'1717.4
2016-Jan-23 00:29N 36°33' W 009°17'1516.1
2016-Jan-22 23:32N 36°44' W 009°30'1717.3
2016-Jan-22 22:32N 37°00' W 009°38'1717.4
2016-Jan-22 21:32N 37°17' W 009°42'1616.1
2016-Jan-22 20:32N 37°33' W 009°45'1918.4
2016-Jan-22 19:29N 37°52' W 009°50'1717.5
2016-Jan-22 18:29N 38°09' W 009°56'1515.6
2016-Jan-22 17:33N 38°23' W 010°00'1717.3
2016-Jan-22 16:33N 38°40' W 010°06'1717.1
2016-Jan-22 15:33N 38°57' W 010°08'1817.6
2016-Jan-22 14:32N 39°15' W 010°09'1918.4
2016-Jan-22 13:29N 39°34' W 010°08'1616.7
2016-Jan-22 12:33N 39°50' W 010°08'1717.3
2016-Jan-22 11:32N 40°07' W 010°08'1717.4
2016-Jan-22 10:33N 40°24' W 010°08'1615.8
2016-Jan-22 09:33N 40°40' W 010°07'1818.1
2016-Jan-22 08:33N 40°58' W 010°07'1817.3
2016-Jan-22 07:29N 41°16' W 010°08'1616.7
2016-Jan-22 06:32N 41°32' W 010°08'1716.9
2016-Jan-22 05:32N 41°49' W 010°09'66915.2
2016-Jan-20 09:27N 50°32' W 000°05'1617.3
2016-Jan-20 08:33N 50°35' E 000°19'1716.6
2016-Jan-20 07:33N 50°41' E 000°44'3316.4
2016-Jan-20 05:33N 51°02' E 001°24'1818.2
2016-Jan-20 04:34N 51°14' E 001°46'1818.1
2016-Jan-20 03:33N 51°29' E 002°01'11416.3
2016-Jan-19 20:32N 52°58' E 003°58'5016.7
2016-Jan-19 17:32N 53°34' E 004°57'1616.2
2016-Jan-19 16:33N 53°39' E 005°22'1615.4
2016-Jan-19 15:32N 53°44' E 005°47'1615.2
2016-Jan-19 14:29N 53°49' E 006°13'1414.8
2016-Jan-19 13:33N 53°53' E 006°35'1615.7
2016-Jan-19 12:33N 53°56' E 007°02'1615.8
2016-Jan-19 11:33N 53°59' E 007°28'1313.5
2016-Jan-19 10:33N 53°53' E 007°47'1414.5
2016-Jan-19 09:34N 53°47' E 008°10'1615.7
2016-Jan-19 08:34N 53°37' E 008°30'1110.7
2016-Jan-19 07:33N 53°26' E 008°30'4 4.3
2016-Jan-19 06:31N 53°21' E 008°30'0 0.0
2016-Jan-19 05:31N 53°21' E 008°30'0 0.0
2016-Jan-19 04:33N 53°21' E 008°30'0 0.0
2016-Jan-19 03:33N 53°21' E 008°30'0 0.0
2016-Jan-19 02:32N 53°21' E 008°30'0 0.0
2016-Jan-19 01:32N 53°21' E 008°30'0 0.0
2016-Jan-19 00:31N 53°21' E 008°30'0 0.0
2016-Jan-18 23:31N 53°21' E 008°30'0 0.0
2016-Jan-18 22:31N 53°21' E 008°30'0 0.0
2016-Jan-18 21:30N 53°21' E 008°30'0 0.0
2016-Jan-18 20:33N 53°21' E 008°30'0 0.0
2016-Jan-18 19:32N 53°21' E 008°30'0 0.0
2016-Jan-18 18:29N 53°21' E 008°30'0 0.0
2016-Jan-18 17:31N 53°21' E 008°30'0 0.0
2016-Jan-18 16:31N 53°21' E 008°30'0 0.0
2016-Jan-18 15:31N 53°21' E 008°30'0 0.0
2016-Jan-18 14:33N 53°21' E 008°30'0 0.0
2016-Jan-18 13:33N 53°21' E 008°30'0 0.0
2016-Jan-18 12:32N 53°21' E 008°30'0 0.0
2016-Jan-18 11:32N 53°21' E 008°30'0 0.0
2016-Jan-18 10:31N 53°21' E 008°30'0 0.0
2016-Jan-18 09:31N 53°21' E 008°30'0 0.0
2016-Jan-18 08:31N 53°21' E 008°30'0 0.0
2016-Jan-18 07:33N 53°21' E 008°30'0 0.0
2016-Jan-18 06:33N 53°21' E 008°30'0 0.0
2016-Jan-18 05:23N 53°21' E 008°30'0 0.0
2016-Jan-18 04:32N 53°21' E 008°30'0 0.0
2016-Jan-18 03:31N 53°21' E 008°30'0 0.0
2016-Jan-18 02:31N 53°21' E 008°30'0 0.0
2016-Jan-18 01:34N 53°21' E 008°30'0 0.0
2016-Jan-18 00:33N 53°21' E 008°30'0 0.0
2016-Jan-17 23:33N 53°21' E 008°30'0 0.0
2016-Jan-17 22:32N 53°21' E 008°30'0 0.0
2016-Jan-17 21:32N 53°21' E 008°30'0 0.0
2016-Jan-17 20:31N 53°21' E 008°30'0 0.0
2016-Jan-17 19:31N 53°21' E 008°30'6 6.2
2016-Jan-17 18:34N 53°27' E 008°29'9 9.3
2016-Jan-17 17:33N 53°37' E 008°30'1515.1
2016-Jan-17 16:33N 53°46' E 008°10'1413.6
2016-Jan-17 15:32N 53°52' E 007°49'1110.8
2016-Jan-17 14:33N 54°01' E 007°39'1313.3
2016-Jan-17 13:33N 54°01' E 008°01'1212.2
2016-Jan-17 12:34N 53°59' E 008°22'1414.3
2016-Jan-17 11:33N 53°53' E 008°43'1515.2
2016-Jan-17 10:33N 53°53' E 009°09'1414.0
2016-Jan-17 09:33N 53°44' E 009°27'1413.5
2016-Jan-17 08:33N 53°34' E 009°43'9 8.7
2016-Jan-17 07:34N 53°32' E 009°57'1 0.9
2016-Jan-17 06:30N 53°32' E 009°58'0 0.0
2016-Jan-17 05:33N 53°32' E 009°58'0 0.0
2016-Jan-17 04:32N 53°32' E 009°58'0 0.0
2016-Jan-17 03:32N 53°32' E 009°58'0 0.0
2016-Jan-17 02:31N 53°32' E 009°58'0 0.0
2016-Jan-17 01:31N 53°32' E 009°58'0 0.0
2016-Jan-17 00:28N 53°32' E 009°58'0 0.0
2016-Jan-16 23:30N 53°32' E 009°58'0 0.0
2016-Jan-16 22:33N 53°32' E 009°58'0 0.0
2016-Jan-16 21:32N 53°32' E 009°58'0 0.0
2016-Jan-16 20:23N 53°32' E 009°58'0 0.0
2016-Jan-16 19:31N 53°32' E 009°58'0 0.0
2016-Jan-16 18:28N 53°32' E 009°58'0 0.0
2016-Jan-16 17:31N 53°32' E 009°58'0 0.0
2016-Jan-16 16:33N 53°32' E 009°58'0 0.0
2016-Jan-16 15:33N 53°32' E 009°58'0 0.0
2016-Jan-16 14:32N 53°32' E 009°58'0 0.0
2016-Jan-16 13:29N 53°32' E 009°58'0 0.0
2016-Jan-16 12:31N 53°32' E 009°58'0 0.0
2016-Jan-16 11:31N 53°32' E 009°58'0 0.0
2016-Jan-16 10:31N 53°32' E 009°58'0 0.0
2016-Jan-16 09:33N 53°32' E 009°58'0 0.0
2016-Jan-16 08:33N 53°32' E 009°58'0 0.0
2016-Jan-16 07:32N 53°32' E 009°58'0 0.0
2016-Jan-16 06:26N 53°32' E 009°58'0 0.0
2016-Jan-16 05:28N 53°32' E 009°58'0 0.0
2016-Jan-16 04:31N 53°32' E 009°58'0 0.0
2016-Jan-16 03:34N 53°32' E 009°58'0 0.0
2016-Jan-16 02:33N 53°32' E 009°58'0 0.0
2016-Jan-16 01:33N 53°32' E 009°58'  

Dump ship's entire track history